首页
METAR-TAF:

METAR-TAF

机场 :

拉巴特-塞拉国际机场

拉巴特, 摩洛哥

纬度: 34-03N, 经度: 006-46W, 海拔: 84米

当前天气观测

该预报发布于46分钟前的14:30 UTC
风速8节,风向东转东北,在北转东北东转东南之间变化
温度 23°C
湿度 61%
气压 1021 hPa
能见度10公里或以上
散云层高于2000英尺
多云层高于10000英尺

METAR: GMME 231430Z 06008KT 030V110 9999 SCT020 BKN100 23/15 Q1021 NOSIG

时间: 16:16 (15:16 UTC)

预报

该预报发布于10小时和16分钟前的05:00 UTC
预报有效从23日的 06点(UTC)到 24日的 12点(UTC)
风速10节,风向西
能見度: 5000
散云层高于1300英尺
多云层高于9000英尺
短暂存在
从 23日的 12点(UTC)到 23日的 18点(UTC)
风速8节,风向北转西北
能見度: 8000

TAF: GMME 230500Z 2306/2412 26010KT 5000 RA SCT013 BKN090 TEMPO 2312/2318 34008KT 8000 NSC

超过4000个机场的气象观测和天气预报(METAR&TAF报告)。

可查询的气象台以黄色和红色小点在地图上表示。

将鼠标移到小点上方,可查看气象台名称。

然后点击查看天气观测和预报。

如需切换地图:点击带黑十字的绿色按钮放大地图;点击带横线的绿色按钮缩小地图;或者点击绿色箭头查看邻近地区的地图。


METAR-TAF: